createdAt,value
2018-10-19T00:01:20.449Z,21.60
2018-10-19T00:03:48.864Z,22.40
2018-10-19T00:06:17.358Z,19.77
2018-10-19T00:08:45.854Z,21.00
2018-10-19T00:11:14.416Z,19.80
2018-10-19T00:13:42.775Z,19.30
2018-10-19T00:16:11.212Z,17.70
2018-10-19T00:18:39.648Z,18.47
2018-10-19T00:21:08.150Z,19.33
2018-10-19T00:23:36.447Z,19.90
2018-10-19T00:26:04.962Z,19.07
2018-10-19T00:28:33.355Z,19.17
2018-10-19T00:31:01.766Z,18.00
2018-10-19T00:33:30.202Z,19.20
2018-10-19T00:35:58.585Z,19.77
2018-10-19T00:38:27.001Z,19.03
2018-10-19T00:40:55.502Z,18.60
2018-10-19T00:43:23.893Z,20.53
2018-10-19T00:45:52.401Z,18.40
2018-10-19T00:48:21.358Z,18.60
2018-10-19T00:50:49.767Z,18.17
2018-10-19T00:53:18.193Z,17.80
2018-10-19T00:55:46.685Z,18.57
2018-10-19T00:58:15.105Z,18.70
2018-10-19T01:00:43.624Z,19.20
2018-10-19T01:03:12.084Z,19.27
2018-10-19T01:05:41.083Z,16.00
2018-10-19T01:08:10.080Z,17.27
2018-10-19T01:10:38.605Z,17.87
2018-10-19T01:13:07.031Z,17.60
2018-10-19T01:15:35.445Z,17.73
2018-10-19T01:18:03.921Z,18.27
2018-10-19T01:20:32.348Z,17.50
2018-10-19T01:23:00.813Z,18.77
2018-10-19T01:25:29.289Z,18.23
2018-10-19T01:27:57.735Z,17.87
2018-10-19T01:30:26.177Z,19.60
2018-10-19T01:32:54.622Z,17.10
2018-10-19T01:35:23.036Z,17.50
2018-10-19T01:37:51.549Z,18.13
2018-10-19T01:40:20.006Z,17.60
2018-10-19T01:42:48.428Z,18.27
2018-10-19T01:45:16.836Z,17.87
2018-10-19T01:47:45.263Z,17.37
2018-10-19T01:50:13.664Z,16.93
2018-10-19T01:52:42.225Z,17.00
2018-10-19T01:55:10.627Z,16.80
2018-10-19T01:57:39.100Z,16.70
2018-10-19T02:00:07.980Z,16.90
2018-10-19T02:02:36.565Z,15.93
2018-10-19T02:05:05.027Z,16.60
2018-10-19T02:07:33.532Z,15.80
2018-10-19T02:10:01.948Z,13.97
2018-10-19T02:12:30.393Z,16.70
2018-10-19T02:14:58.802Z,15.53
2018-10-19T02:17:27.226Z,16.13
2018-10-19T02:19:55.642Z,16.33
2018-10-19T02:22:23.995Z,16.10
2018-10-19T02:24:52.460Z,15.70
2018-10-19T02:27:20.942Z,15.07
2018-10-19T02:29:49.338Z,15.10
2018-10-19T02:32:17.777Z,15.90
2018-10-19T02:34:46.180Z,14.73
2018-10-19T02:37:14.584Z,14.80
2018-10-19T02:39:42.976Z,15.63
2018-10-19T02:42:11.409Z,14.70
2018-10-19T02:44:39.852Z,14.63
2018-10-19T02:47:09.234Z,14.37
2018-10-19T02:49:37.601Z,15.93
2018-10-19T02:52:06.773Z,15.57
2018-10-19T02:54:35.200Z,15.93
2018-10-19T02:57:03.636Z,15.23
2018-10-19T02:59:32.070Z,16.47
2018-10-19T03:02:00.485Z,16.30
2018-10-19T03:04:28.932Z,17.30
2018-10-19T03:06:57.319Z,15.43
2018-10-19T03:09:25.708Z,15.70
2018-10-19T03:11:54.129Z,16.03
2018-10-19T03:14:22.573Z,15.30
2018-10-19T03:16:50.963Z,16.13
2018-10-19T03:19:19.418Z,15.60
2018-10-19T03:21:47.824Z,14.70
2018-10-19T03:24:16.245Z,15.30
2018-10-19T03:26:44.645Z,14.90
2018-10-19T03:29:13.175Z,15.67
2018-10-19T03:31:41.459Z,15.20
2018-10-19T03:34:09.854Z,15.50
2018-10-19T03:36:38.225Z,15.47
2018-10-19T03:39:07.925Z,16.70
2018-10-19T03:41:36.347Z,15.60
2018-10-19T03:44:04.889Z,17.73
2018-10-19T03:46:33.342Z,16.90
2018-10-19T03:49:02.024Z,15.90
2018-10-19T03:51:30.472Z,16.10
2018-10-19T03:53:58.848Z,17.13
2018-10-19T03:56:27.236Z,16.87
2018-10-19T03:58:55.680Z,16.40
2018-10-19T04:01:24.055Z,17.13
2018-10-19T04:03:52.510Z,17.40
2018-10-19T04:06:20.936Z,16.90
2018-10-19T04:08:49.315Z,17.80
2018-10-19T04:11:17.770Z,16.00
2018-10-19T04:13:46.183Z,17.53
2018-10-19T04:16:14.624Z,15.93
2018-10-19T04:18:43.032Z,16.70
2018-10-19T04:21:11.537Z,16.20
2018-10-19T04:23:39.872Z,18.03
2018-10-19T04:26:08.298Z,18.10
2018-10-19T04:28:36.696Z,16.93
2018-10-19T04:31:05.136Z,17.30
2018-10-19T04:33:33.544Z,18.90
2018-10-19T04:36:01.996Z,19.23
2018-10-19T04:38:30.427Z,18.20
2018-10-19T04:40:58.905Z,18.13
2018-10-19T04:43:27.196Z,17.13
2018-10-19T04:45:55.660Z,17.10
2018-10-19T04:48:24.066Z,19.37
2018-10-19T04:50:52.494Z,18.70
2018-10-19T04:53:20.965Z,19.27
2018-10-19T04:55:49.380Z,17.97
2018-10-19T04:58:17.782Z,20.03
2018-10-19T05:00:46.215Z,18.20
2018-10-19T05:03:14.696Z,19.30
2018-10-19T05:05:43.143Z,19.70
2018-10-19T05:08:11.524Z,18.80
2018-10-19T05:10:39.875Z,19.63
2018-10-19T05:13:08.386Z,19.27
2018-10-19T05:15:36.704Z,20.27
2018-10-19T05:18:05.360Z,21.53
2018-10-19T05:20:33.774Z,19.07
2018-10-19T05:23:02.323Z,20.30
2018-10-19T05:25:30.676Z,20.47
2018-10-19T05:27:59.052Z,19.60
2018-10-19T05:30:27.443Z,18.93
2018-10-19T05:32:55.910Z,19.20
2018-10-19T05:35:24.304Z,19.23
2018-10-19T05:37:52.717Z,20.40
2018-10-19T05:40:21.144Z,21.00
2018-10-19T05:42:49.646Z,19.77
2018-10-19T05:45:18.075Z,19.20
2018-10-19T05:47:46.493Z,19.80
2018-10-19T05:50:14.920Z,20.60
2018-10-19T05:52:43.308Z,22.53
2018-10-19T05:55:11.753Z,21.07
2018-10-19T05:57:40.159Z,22.17
2018-10-19T06:00:09.607Z,23.60
2018-10-19T06:02:38.122Z,23.13
2018-10-19T06:05:07.310Z,24.43
2018-10-19T06:07:35.708Z,23.30
2018-10-19T06:10:04.583Z,22.93
2018-10-19T06:12:32.960Z,25.40
2018-10-19T06:15:01.361Z,23.23
2018-10-19T06:17:29.772Z,23.40
2018-10-19T06:19:58.210Z,23.30
2018-10-19T06:22:26.637Z,23.33
2018-10-19T06:24:55.055Z,23.43
2018-10-19T06:27:23.478Z,25.03
2018-10-19T06:29:51.884Z,25.33
2018-10-19T06:32:20.369Z,24.60
2018-10-19T06:34:48.828Z,23.23
2018-10-19T06:37:17.278Z,23.60
2018-10-19T06:39:46.009Z,23.67
2018-10-19T06:42:14.458Z,24.50
2018-10-19T06:44:42.848Z,23.60
2018-10-19T06:47:11.388Z,22.33
2018-10-19T06:49:39.758Z,26.00
2018-10-19T06:52:08.215Z,23.17
2018-10-19T06:54:36.597Z,22.77
2018-10-19T06:57:05.244Z,25.50
2018-10-19T06:59:33.715Z,23.63
2018-10-19T07:02:02.110Z,23.37
2018-10-19T07:04:30.511Z,24.97
2018-10-19T07:06:58.918Z,23.50
2018-10-19T07:09:27.326Z,24.00
2018-10-19T07:11:55.712Z,24.03
2018-10-19T07:14:24.116Z,23.43
2018-10-19T07:16:52.540Z,25.30
2018-10-19T07:19:20.985Z,25.40
2018-10-19T07:21:49.508Z,24.30
2018-10-19T07:24:17.867Z,23.90
2018-10-19T07:26:46.319Z,25.77
2018-10-19T07:29:14.746Z,25.37
2018-10-19T07:31:43.181Z,24.57
2018-10-19T07:34:11.613Z,24.73
2018-10-19T07:36:40.065Z,26.77
2018-10-19T07:39:09.192Z,24.23
2018-10-19T07:41:37.627Z,24.57
2018-10-19T07:44:06.383Z,25.60
2018-10-19T07:46:34.786Z,25.20
2018-10-19T07:49:03.209Z,26.20
2018-10-19T07:51:31.673Z,26.60
2018-10-19T07:54:00.130Z,26.07
2018-10-19T07:56:28.528Z,24.87
2018-10-19T07:58:56.964Z,28.60
2018-10-19T08:01:25.361Z,28.53
2018-10-19T08:03:53.764Z,25.47
2018-10-19T08:06:22.254Z,26.00
2018-10-19T08:08:50.629Z,25.67
2018-10-19T08:11:19.107Z,25.90
2018-10-19T08:13:47.461Z,25.20
2018-10-19T08:16:15.897Z,26.90
2018-10-19T08:18:44.329Z,25.37
2018-10-19T08:21:12.803Z,25.37
2018-10-19T08:23:41.236Z,26.80
2018-10-19T08:26:09.644Z,27.47
2018-10-19T08:28:38.087Z,25.53
2018-10-19T08:31:06.652Z,25.33
2018-10-19T08:33:35.372Z,26.67
2018-10-19T08:36:03.904Z,24.73
2018-10-19T08:38:32.317Z,26.50
2018-10-19T08:41:00.789Z,25.13
2018-10-19T08:43:29.135Z,25.40
2018-10-19T08:46:01.714Z,24.00
2018-10-19T08:48:30.124Z,24.07
2018-10-19T08:50:58.576Z,25.30
2018-10-19T08:53:27.041Z,26.10
2018-10-19T08:55:55.405Z,25.70
2018-10-19T08:58:23.869Z,25.60
2018-10-19T09:00:52.230Z,25.37
2018-10-19T09:03:20.676Z,25.80
2018-10-19T09:05:49.088Z,26.77
2018-10-19T09:08:17.487Z,29.73
2018-10-19T09:10:45.997Z,24.73
2018-10-19T09:13:14.364Z,25.80
2018-10-19T09:15:42.814Z,26.17
2018-10-19T09:18:11.437Z,27.10
2018-10-19T09:20:39.859Z,26.30
2018-10-19T09:23:08.335Z,27.07
2018-10-19T09:25:36.765Z,27.50
2018-10-19T09:28:05.235Z,26.70
2018-10-19T09:30:33.742Z,24.70
2018-10-19T09:33:02.166Z,24.53
2018-10-19T09:35:30.559Z,25.07
2018-10-19T09:37:58.923Z,25.97
2018-10-19T09:40:27.335Z,25.43
2018-10-19T09:42:55.791Z,25.50
2018-10-19T09:45:24.170Z,26.67
2018-10-19T09:47:52.641Z,26.07
2018-10-19T09:50:21.088Z,25.70
2018-10-19T09:52:49.471Z,25.70
2018-10-19T09:55:17.929Z,23.47
2018-10-19T09:57:46.249Z,26.20
2018-10-19T10:00:19.829Z,23.70
2018-10-19T10:02:49.156Z,23.20
2018-10-19T10:05:17.675Z,25.57
2018-10-19T10:07:46.044Z,24.60
2018-10-19T10:10:14.445Z,26.20
2018-10-19T10:12:42.872Z,26.13
2018-10-19T10:15:11.487Z,24.30
2018-10-19T10:17:39.793Z,24.00
2018-10-19T10:20:08.700Z,22.33
2018-10-19T10:22:37.100Z,25.67
2018-10-19T10:25:06.581Z,23.93
2018-10-19T10:27:35.063Z,24.47
2018-10-19T10:30:03.641Z,24.60
2018-10-19T10:32:32.061Z,23.33
2018-10-19T10:35:00.525Z,22.80
2018-10-19T10:37:28.977Z,23.50
2018-10-19T10:39:57.390Z,24.10
2018-10-19T10:42:25.819Z,26.00
2018-10-19T10:44:54.209Z,23.80
2018-10-19T10:47:22.615Z,24.87
2018-10-19T10:49:50.991Z,24.83
2018-10-19T10:52:19.396Z,24.07
2018-10-19T10:54:47.843Z,23.57
2018-10-19T10:57:16.817Z,24.77
2018-10-19T10:59:46.232Z,25.47
2018-10-19T11:02:14.653Z,23.60
2018-10-19T11:04:43.079Z,26.13
2018-10-19T11:07:11.592Z,24.03
2018-10-19T11:09:39.998Z,24.33
2018-10-19T11:12:08.444Z,24.53
2018-10-19T11:14:36.851Z,24.30
2018-10-19T11:17:05.352Z,24.30
2018-10-19T11:19:33.750Z,25.10
2018-10-19T11:22:02.843Z,22.87
2018-10-19T11:24:31.267Z,24.53
2018-10-19T11:26:59.728Z,25.10
2018-10-19T11:29:28.097Z,24.83
2018-10-19T11:31:56.496Z,22.30
2018-10-19T11:34:24.906Z,23.03
2018-10-19T11:36:53.307Z,24.07
2018-10-19T11:39:21.620Z,23.13
2018-10-19T11:41:50.029Z,25.30
2018-10-19T11:44:18.468Z,23.83
2018-10-19T11:46:46.970Z,22.67
2018-10-19T11:49:15.847Z,24.07
2018-10-19T11:51:44.213Z,24.83
2018-10-19T11:54:12.615Z,22.63
2018-10-19T11:56:41.514Z,24.73
2018-10-19T11:59:09.875Z,21.30
2018-10-19T12:01:39.128Z,25.03
2018-10-19T12:04:07.588Z,24.27
2018-10-19T12:06:35.976Z,25.90
2018-10-19T12:09:05.679Z,21.00
2018-10-19T12:11:34.053Z,23.40
2018-10-19T12:14:02.437Z,22.33
2018-10-19T12:16:30.933Z,24.10
2018-10-19T12:18:59.365Z,24.20
2018-10-19T12:21:27.747Z,23.47
2018-10-19T12:23:56.163Z,24.30
2018-10-19T12:26:24.579Z,24.07
2018-10-19T12:28:53.005Z,23.83
2018-10-19T12:31:21.420Z,24.43
2018-10-19T12:33:49.875Z,23.30
2018-10-19T12:36:18.295Z,24.03
2018-10-19T12:38:46.676Z,23.57
2018-10-19T12:41:15.630Z,22.63
2018-10-19T12:43:43.970Z,23.90
2018-10-19T12:46:25.239Z,23.07
2018-10-19T12:48:54.288Z,22.27
2018-10-19T12:51:22.721Z,22.97
2018-10-19T12:53:51.155Z,21.80
2018-10-19T12:56:20.493Z,22.60
2018-10-19T12:58:49.984Z,23.30
2018-10-19T13:01:18.584Z,22.57
2018-10-19T13:03:47.003Z,21.20
2018-10-19T13:06:15.384Z,20.23
2018-10-19T13:08:43.836Z,21.40
2018-10-19T13:11:12.275Z,20.53
2018-10-19T13:13:40.700Z,23.20
2018-10-19T13:16:09.171Z,21.80
2018-10-19T13:18:37.564Z,23.63
2018-10-19T13:21:06.009Z,21.60
2018-10-19T13:23:34.691Z,21.00
2018-10-19T13:26:03.477Z,20.83
2018-10-19T13:28:31.976Z,21.47
2018-10-19T13:31:00.425Z,23.23
2018-10-19T13:33:28.818Z,22.80
2018-10-19T13:35:57.264Z,21.10
2018-10-19T13:38:25.842Z,21.17
2018-10-19T13:40:54.868Z,22.83
2018-10-19T13:43:23.750Z,21.23
2018-10-19T13:45:52.660Z,20.97
2018-10-19T13:48:21.632Z,21.57
2018-10-19T13:50:50.036Z,22.03
2018-10-19T13:53:18.410Z,21.90
2018-10-19T13:55:46.881Z,22.23
2018-10-19T13:58:15.360Z,19.03
2018-10-19T14:00:43.825Z,19.97
2018-10-19T14:03:12.271Z,21.27
2018-10-19T14:05:40.801Z,18.67
2018-10-19T14:08:09.087Z,20.13
2018-10-19T14:10:37.517Z,20.80
2018-10-19T14:13:06.226Z,20.27
2018-10-19T14:15:34.624Z,19.93
2018-10-19T14:18:03.414Z,20.03
2018-10-19T14:20:31.815Z,20.63
2018-10-19T14:23:00.317Z,19.70
2018-10-19T14:25:28.687Z,19.90
2018-10-19T14:27:57.109Z,20.53
2018-10-19T14:30:25.577Z,23.40
2018-10-19T14:32:54.011Z,20.33
2018-10-19T14:35:22.449Z,19.40
2018-10-19T14:37:50.866Z,20.03
2018-10-19T14:40:20.355Z,20.50
2018-10-19T14:42:48.917Z,17.90
2018-10-19T14:45:17.829Z,19.50
2018-10-19T14:47:47.205Z,19.60
2018-10-19T14:50:16.881Z,20.20
2018-10-19T14:52:45.315Z,18.67
2018-10-19T14:55:15.262Z,20.83
2018-10-19T14:57:43.685Z,19.60
2018-10-19T15:00:15.662Z,19.43
2018-10-19T15:02:44.075Z,20.70
2018-10-19T15:05:13.909Z,19.50
2018-10-19T15:07:42.333Z,20.30
2018-10-19T15:10:14.378Z,19.23
2018-10-19T15:12:43.067Z,17.50
2018-10-19T15:15:13.962Z,19.27
2018-10-19T15:17:42.353Z,18.97
2018-10-19T15:20:11.355Z,18.53
2018-10-19T15:22:39.797Z,18.70
2018-10-19T15:25:09.204Z,21.37
2018-10-19T15:27:38.236Z,19.40
2018-10-19T15:30:07.995Z,20.00
2018-10-19T15:32:36.516Z,19.20
2018-10-19T15:35:04.979Z,17.87
2018-10-19T15:37:33.426Z,20.60
2018-10-19T15:40:01.887Z,18.73
2018-10-19T15:42:30.282Z,18.63
2018-10-19T15:44:58.722Z,18.80
2018-10-19T15:47:28.897Z,17.33
2018-10-19T15:49:58.332Z,19.20
2018-10-19T15:52:27.247Z,20.30
2018-10-19T15:54:55.632Z,22.23
2018-10-19T15:57:24.128Z,21.00
2018-10-19T15:59:52.480Z,18.90
2018-10-19T16:02:20.935Z,19.30
2018-10-19T16:04:49.999Z,20.03
2018-10-19T16:07:19.032Z,19.50
2018-10-19T16:09:47.614Z,19.40
2018-10-19T16:12:16.175Z,19.97
2018-10-19T16:14:44.626Z,18.70
2018-10-19T16:17:13.083Z,19.73
2018-10-19T16:19:41.848Z,19.20
2018-10-19T16:22:10.304Z,21.87
2018-10-19T16:24:39.496Z,21.80
2018-10-19T16:27:08.018Z,21.80
2018-10-19T16:29:36.409Z,20.80
2018-10-19T16:32:05.469Z,20.33
2018-10-19T16:34:33.949Z,21.27
2018-10-19T16:37:02.383Z,27.73
2018-10-19T16:39:30.816Z,21.90
2018-10-19T16:41:59.442Z,22.30
2018-10-19T16:44:28.857Z,23.80
2018-10-19T16:46:57.272Z,22.00
2018-10-19T16:49:25.696Z,24.10
2018-10-19T16:51:54.137Z,23.67
2018-10-19T16:54:22.602Z,23.17
2018-10-19T16:56:51.004Z,24.10
2018-10-19T16:59:19.485Z,24.20
2018-10-19T17:01:47.876Z,24.73
2018-10-19T17:04:16.335Z,27.90
2018-10-19T17:06:44.730Z,25.53
2018-10-19T17:09:14.210Z,28.30
2018-10-19T17:11:42.926Z,31.77
2018-10-19T17:14:11.688Z,30.77
2018-10-19T17:16:40.107Z,29.73
2018-10-19T17:19:09.943Z,31.80
2018-10-19T17:21:38.411Z,33.90
2018-10-19T17:24:06.901Z,31.83
2018-10-19T17:26:35.325Z,33.10
2018-10-19T17:29:03.785Z,33.57
2018-10-19T17:31:32.281Z,34.03
2018-10-19T17:34:00.576Z,34.20
2018-10-19T17:36:29.013Z,32.90
2018-10-19T17:38:57.461Z,33.17
2018-10-19T17:41:25.886Z,33.87
2018-10-19T17:43:54.313Z,33.37
2018-10-19T17:46:22.733Z,32.67
2018-10-19T17:48:51.566Z,31.13
2018-10-19T17:51:20.024Z,39.10
2018-10-19T17:53:48.469Z,33.30
2018-10-19T17:56:16.911Z,34.30
2018-10-19T17:58:45.346Z,34.77
2018-10-19T18:01:13.731Z,36.43
2018-10-19T18:03:42.200Z,35.97
2018-10-19T18:06:11.723Z,33.03
2018-10-19T18:08:40.040Z,32.40
2018-10-19T18:11:08.553Z,34.33
2018-10-19T18:13:37.011Z,34.70
2018-10-19T18:16:05.566Z,36.03
2018-10-19T18:18:33.913Z,35.23
2018-10-19T18:21:02.436Z,32.73
2018-10-19T18:23:30.856Z,35.07
2018-10-19T18:25:59.323Z,34.40
2018-10-19T18:28:27.727Z,34.47
2018-10-19T18:30:56.155Z,38.07
2018-10-19T18:33:24.532Z,36.23
2018-10-19T18:35:52.987Z,37.80
2018-10-19T18:38:21.382Z,37.40
2018-10-19T18:40:49.845Z,35.23
2018-10-19T18:43:18.253Z,37.03
2018-10-19T18:45:46.631Z,36.00
2018-10-19T18:48:15.068Z,34.43
2018-10-19T18:50:43.565Z,35.90
2018-10-19T18:53:12.051Z,35.23
2018-10-19T18:55:40.417Z,36.77
2018-10-19T18:58:08.835Z,35.10
2018-10-19T19:00:37.273Z,37.20
2018-10-19T19:03:06.190Z,34.90
2018-10-19T19:05:34.651Z,35.43
2018-10-19T19:08:03.111Z,35.53
2018-10-19T19:10:31.562Z,37.00
2018-10-19T19:13:05.310Z,34.93
2018-10-19T19:15:34.265Z,35.07
2018-10-19T19:18:02.686Z,36.10
2018-10-19T19:20:31.446Z,33.07
2018-10-19T19:22:59.883Z,35.30
2018-10-19T19:25:33.656Z,36.00
2018-10-19T19:28:02.646Z,36.03
2018-10-19T19:30:31.123Z,36.00
2018-10-19T19:33:04.928Z,35.60
2018-10-19T19:35:33.361Z,34.60
2018-10-19T19:38:01.881Z,34.67
2018-10-19T19:40:34.416Z,33.33
2018-10-19T19:43:02.836Z,32.20
2018-10-19T19:45:31.273Z,31.23
2018-10-19T19:48:04.963Z,32.27
2018-10-19T19:50:33.466Z,32.27
2018-10-19T19:53:01.919Z,31.77
2018-10-19T19:55:30.323Z,31.27
2018-10-19T19:57:58.852Z,31.10
2018-10-19T20:00:27.277Z,29.70
2018-10-19T20:02:55.776Z,30.57
2018-10-19T20:05:24.220Z,30.17
2018-10-19T20:07:52.721Z,27.73
2018-10-19T20:10:21.164Z,26.60
2018-10-19T20:12:49.579Z,27.73
2018-10-19T20:15:18.007Z,25.63
2018-10-19T20:17:46.409Z,26.33
2018-10-19T20:20:14.915Z,24.27
2018-10-19T20:22:43.447Z,22.70
2018-10-19T20:25:12.666Z,24.10
2018-10-19T20:27:41.560Z,24.70
2018-10-19T20:30:12.772Z,24.10
2018-10-19T20:32:41.195Z,22.63
2018-10-19T20:35:10.116Z,24.83
2018-10-19T20:37:38.483Z,27.60
2018-10-19T20:40:07.019Z,23.83
2018-10-19T20:42:35.505Z,22.13
2018-10-19T20:45:04.506Z,25.13
2018-10-19T20:47:32.977Z,29.40
2018-10-19T20:50:01.449Z,25.07
2018-10-19T20:52:29.833Z,21.67
2018-10-19T20:54:58.229Z,20.10
2018-10-19T20:57:26.662Z,19.33
2018-10-19T20:59:55.073Z,17.40
2018-10-19T21:02:23.494Z,18.63
2018-10-19T21:04:51.941Z,19.07
2018-10-19T21:07:20.556Z,19.33
2018-10-19T21:09:48.885Z,18.77
2018-10-19T21:12:17.329Z,18.67
2018-10-19T21:14:45.778Z,19.37
2018-10-19T21:17:14.273Z,17.50
2018-10-19T21:19:42.625Z,16.50
2018-10-19T21:22:11.049Z,21.63
2018-10-19T21:24:39.488Z,19.13
2018-10-19T21:27:07.937Z,18.83
2018-10-19T21:29:36.386Z,22.10
2018-10-19T21:32:04.927Z,18.30
2018-10-19T21:34:33.372Z,19.93
2018-10-19T21:37:02.757Z,19.93
2018-10-19T21:39:31.160Z,19.50
2018-10-19T21:42:02.198Z,17.70
2018-10-19T21:44:31.579Z,17.00
2018-10-19T21:47:00.046Z,17.37
2018-10-19T21:49:29.551Z,18.40
2018-10-19T21:51:58.351Z,17.30
2018-10-19T21:54:27.803Z,15.47
2018-10-19T21:56:56.934Z,14.27
2018-10-19T21:59:25.352Z,15.43
2018-10-19T22:01:53.790Z,14.90
2018-10-19T22:04:22.229Z,15.37
2018-10-19T22:06:50.669Z,16.80
2018-10-19T22:09:19.081Z,15.80
2018-10-19T22:11:47.496Z,14.10
2018-10-19T22:14:15.955Z,14.30
2018-10-19T22:16:44.421Z,14.53
2018-10-19T22:19:12.900Z,13.27
2018-10-19T22:21:41.680Z,14.77
2018-10-19T22:24:10.857Z,15.77
2018-10-19T22:26:39.655Z,16.40
2018-10-19T22:29:08.317Z,14.60
2018-10-19T22:31:36.895Z,14.47
2018-10-19T22:34:05.492Z,14.73
2018-10-19T22:36:33.881Z,15.67
2018-10-19T22:39:02.990Z,14.27
2018-10-19T22:41:31.420Z,13.73
2018-10-19T22:43:59.785Z,12.93
2018-10-19T22:46:28.257Z,12.50
2018-10-19T22:48:56.730Z,12.77
2018-10-19T22:51:25.250Z,14.13
2018-10-19T22:53:53.614Z,12.63
2018-10-19T22:56:22.106Z,14.27
2018-10-19T22:58:50.589Z,14.33
2018-10-19T23:01:19.689Z,14.07
2018-10-19T23:03:48.206Z,12.83
2018-10-19T23:06:16.670Z,13.17
2018-10-19T23:08:45.127Z,12.90
2018-10-19T23:11:13.753Z,12.80
2018-10-19T23:13:42.200Z,13.10
2018-10-19T23:16:10.676Z,12.73
2018-10-19T23:18:39.128Z,13.73
2018-10-19T23:21:07.553Z,12.27
2018-10-19T23:23:35.965Z,13.37
2018-10-19T23:26:04.534Z,12.93
2018-10-19T23:28:32.949Z,14.07
2018-10-19T23:31:01.533Z,13.10
2018-10-19T23:33:29.959Z,13.87
2018-10-19T23:35:59.384Z,12.20
2018-10-19T23:38:27.787Z,12.13
2018-10-19T23:40:56.248Z,13.50
2018-10-19T23:43:24.615Z,12.30
2018-10-19T23:45:53.017Z,12.30
2018-10-19T23:48:21.453Z,12.80
2018-10-19T23:50:49.860Z,13.70
2018-10-19T23:53:18.313Z,12.17
2018-10-19T23:55:46.721Z,15.00
2018-10-19T23:58:15.121Z,13.90
